createdAt,value
2023-03-08T00:01:04.544Z,4.13
2023-03-08T00:03:31.405Z,4.87
2023-03-08T00:05:57.886Z,3.00
2023-03-08T00:08:24.618Z,5.30
2023-03-08T00:10:51.211Z,5.13
2023-03-08T00:13:18.304Z,4.63
2023-03-08T00:15:46.203Z,2.30
2023-03-08T00:18:12.857Z,3.23
2023-03-08T00:20:39.383Z,2.63
2023-03-08T00:23:06.158Z,3.67
2023-03-08T00:25:32.686Z,5.30
2023-03-08T00:27:59.150Z,2.77
2023-03-08T00:30:29.073Z,5.03
2023-03-08T00:32:55.651Z,2.67
2023-03-08T00:35:22.266Z,5.23
2023-03-08T00:37:48.869Z,6.27
2023-03-08T00:40:15.387Z,4.60
2023-03-08T00:42:42.202Z,2.27
2023-03-08T00:45:09.468Z,3.50
2023-03-08T00:47:35.916Z,1.60
2023-03-08T00:50:02.671Z,3.33
2023-03-08T00:52:29.452Z,5.40
2023-03-08T00:54:56.000Z,4.10
2023-03-08T00:57:22.478Z,2.93
2023-03-08T00:59:48.924Z,2.67
2023-03-08T01:02:15.402Z,3.33
2023-03-08T01:04:44.693Z,2.40
2023-03-08T01:07:11.320Z,3.10
2023-03-08T01:09:37.981Z,2.93
2023-03-08T01:12:05.347Z,4.40
2023-03-08T01:14:31.959Z,2.60
2023-03-08T01:16:58.501Z,3.30
2023-03-08T01:19:24.981Z,3.70
2023-03-08T01:21:51.431Z,5.43
2023-03-08T01:24:17.878Z,5.33
2023-03-08T01:26:44.325Z,3.20
2023-03-08T01:29:10.788Z,8.80
2023-03-08T01:31:37.260Z,4.83
2023-03-08T01:34:03.709Z,6.60
2023-03-08T01:36:30.492Z,4.77
2023-03-08T01:39:01.492Z,6.47
2023-03-08T01:41:30.005Z,5.37
2023-03-08T01:43:57.231Z,7.30
2023-03-08T01:46:28.289Z,5.33
2023-03-08T01:48:58.526Z,5.80
2023-03-08T01:51:37.067Z,6.37
2023-03-08T01:54:08.267Z,5.73
2023-03-08T01:56:35.648Z,4.00
2023-03-08T01:59:02.163Z,6.57
2023-03-08T02:01:28.777Z,6.27
2023-03-08T02:03:55.307Z,5.20
2023-03-08T02:06:22.045Z,5.70
2023-03-08T02:08:48.834Z,4.30
2023-03-08T02:11:16.160Z,3.57
2023-03-08T02:13:42.888Z,6.07
2023-03-08T02:16:12.887Z,4.90
2023-03-08T02:18:59.445Z,4.33
2023-03-08T02:21:27.408Z,5.63
2023-03-08T02:23:54.202Z,3.90
2023-03-08T02:26:21.369Z,3.67
2023-03-08T02:28:47.925Z,4.47
2023-03-08T02:31:14.975Z,4.50
2023-03-08T02:33:41.610Z,2.73
2023-03-08T02:36:09.595Z,4.10
2023-03-08T02:38:36.594Z,4.73
2023-03-08T02:41:03.021Z,3.93
2023-03-08T02:43:29.509Z,6.13
2023-03-08T02:45:55.963Z,4.47
2023-03-08T02:48:22.444Z,4.90
2023-03-08T02:50:48.897Z,3.57
2023-03-08T02:53:15.422Z,2.33
2023-03-08T02:55:42.260Z,2.53
2023-03-08T02:58:10.018Z,2.63
2023-03-08T03:00:36.993Z,4.50
2023-03-08T03:03:03.521Z,2.57
2023-03-08T03:05:30.013Z,3.73
2023-03-08T03:07:58.644Z,2.50
2023-03-08T03:10:25.889Z,2.90
2023-03-08T03:12:52.492Z,1.70
2023-03-08T03:15:18.955Z,2.20
2023-03-08T03:17:45.477Z,2.00
2023-03-08T03:20:12.457Z,2.50
2023-03-08T03:22:38.926Z,4.40
2023-03-08T03:25:05.929Z,3.90
2023-03-08T03:27:32.409Z,2.27
2023-03-08T03:29:58.901Z,2.43
2023-03-08T03:32:25.537Z,3.10
2023-03-08T03:34:52.033Z,2.00
2023-03-08T03:37:18.557Z,1.70
2023-03-08T03:39:45.149Z,1.50
2023-03-08T03:42:11.781Z,1.90
2023-03-08T03:44:38.347Z,2.37
2023-03-08T03:47:05.541Z,1.87
2023-03-08T03:49:32.081Z,2.40
2023-03-08T03:51:58.562Z,2.30
2023-03-08T03:54:25.410Z,2.43
2023-03-08T03:56:52.022Z,2.40
2023-03-08T03:59:18.561Z,2.40
2023-03-08T04:01:45.102Z,2.60
2023-03-08T04:04:11.584Z,2.30
2023-03-08T04:06:38.926Z,3.50
2023-03-08T04:09:16.401Z,2.80
2023-03-08T04:11:43.439Z,3.73
2023-03-08T04:14:10.473Z,6.73
2023-03-08T04:16:38.616Z,6.90
2023-03-08T04:19:07.890Z,6.20
2023-03-08T04:21:34.810Z,6.37
2023-03-08T04:24:01.422Z,7.33
2023-03-08T04:26:28.327Z,7.13
2023-03-08T04:28:54.915Z,8.73
2023-03-08T04:31:23.945Z,7.73
2023-03-08T04:33:50.932Z,7.53
2023-03-08T04:36:18.401Z,8.57
2023-03-08T04:38:45.749Z,9.50
2023-03-08T04:41:12.885Z,8.70
2023-03-08T04:43:50.804Z,10.50
2023-03-08T04:46:19.025Z,8.20
2023-03-08T04:48:46.242Z,9.57
2023-03-08T04:51:14.417Z,9.17
2023-03-08T04:53:41.721Z,8.53
2023-03-08T04:56:09.094Z,11.53
2023-03-08T04:58:36.701Z,10.83
2023-03-08T05:01:20.581Z,10.40
2023-03-08T05:03:49.714Z,12.80
2023-03-08T05:06:16.339Z,11.50
2023-03-08T05:08:43.017Z,11.37
2023-03-08T05:11:09.831Z,11.97
2023-03-08T05:13:38.593Z,11.73
2023-03-08T05:16:07.040Z,11.77
2023-03-08T05:18:33.891Z,12.03
2023-03-08T05:21:05.382Z,11.53
2023-03-08T05:23:32.248Z,13.93
2023-03-08T05:26:00.398Z,11.30
2023-03-08T05:28:28.840Z,11.43
2023-03-08T05:31:08.695Z,11.60
2023-03-08T05:33:36.332Z,12.10
2023-03-08T05:36:03.551Z,13.23
2023-03-08T05:38:30.406Z,13.00
2023-03-08T05:41:04.125Z,14.53
2023-03-08T05:43:30.825Z,14.00
2023-03-08T05:46:18.527Z,12.10
2023-03-08T05:48:45.532Z,11.50
2023-03-08T05:51:14.537Z,12.53
2023-03-08T05:53:41.108Z,12.17
2023-03-08T05:56:18.964Z,11.90
2023-03-08T05:58:47.909Z,12.67
2023-03-08T06:01:16.859Z,12.10
2023-03-08T06:03:50.538Z,10.77
2023-03-08T06:06:17.760Z,10.60
2023-03-08T06:08:44.622Z,10.40
2023-03-08T06:11:11.496Z,10.87
2023-03-08T06:13:37.981Z,10.53
2023-03-08T06:16:05.086Z,10.37
2023-03-08T06:18:31.760Z,8.67
2023-03-08T06:21:03.769Z,8.80
2023-03-08T06:23:31.712Z,9.07
2023-03-08T06:25:58.792Z,10.37
2023-03-08T06:28:26.423Z,9.73
2023-03-08T06:30:53.649Z,10.57
2023-03-08T06:33:22.897Z,9.97
2023-03-08T06:36:02.762Z,10.00
2023-03-08T06:38:32.389Z,10.53
2023-03-08T06:41:00.764Z,11.03
2023-03-08T06:43:27.883Z,9.73
2023-03-08T06:45:54.717Z,9.17
2023-03-08T06:48:21.430Z,9.30
2023-03-08T06:50:47.978Z,9.70
2023-03-08T06:53:14.769Z,8.83
2023-03-08T06:55:42.075Z,7.80
2023-03-08T06:58:09.030Z,7.30
2023-03-08T07:00:35.822Z,7.83
2023-03-08T07:03:02.267Z,8.97
2023-03-08T07:05:28.995Z,7.70
2023-03-08T07:07:55.441Z,9.00
2023-03-08T07:10:22.415Z,8.17
2023-03-08T07:12:51.268Z,8.37
2023-03-08T07:15:20.323Z,8.33
2023-03-08T07:17:47.999Z,7.77
2023-03-08T07:20:16.595Z,9.20
2023-03-08T07:22:44.678Z,9.67
2023-03-08T07:25:12.873Z,12.13
2023-03-08T07:27:39.343Z,12.00
2023-03-08T07:30:09.711Z,9.70
2023-03-08T07:32:37.138Z,9.80
2023-03-08T07:35:03.902Z,8.47
2023-03-08T07:37:30.346Z,10.33
2023-03-08T07:39:56.853Z,9.20
2023-03-08T07:42:23.329Z,9.47
2023-03-08T07:44:49.906Z,8.27
2023-03-08T07:47:16.410Z,7.97
2023-03-08T07:49:42.918Z,8.13
2023-03-08T07:52:09.388Z,7.53
2023-03-08T07:54:35.892Z,7.20
2023-03-08T07:57:03.002Z,6.17
2023-03-08T07:59:29.504Z,6.73
2023-03-08T08:01:55.994Z,7.17
2023-03-08T08:04:23.361Z,6.93
2023-03-08T08:06:49.961Z,7.07
2023-03-08T08:09:17.932Z,9.20
2023-03-08T08:11:44.386Z,10.37
2023-03-08T08:14:10.839Z,7.90
2023-03-08T08:16:37.393Z,6.30
2023-03-08T08:19:03.898Z,6.97
2023-03-08T08:21:30.349Z,7.67
2023-03-08T08:23:57.970Z,6.93
2023-03-08T08:26:24.507Z,7.23
2023-03-08T08:28:53.210Z,6.07
2023-03-08T08:31:24.560Z,7.77
2023-03-08T08:33:51.157Z,5.57
2023-03-08T08:36:19.746Z,6.00
2023-03-08T08:38:46.387Z,6.60
2023-03-08T08:41:17.388Z,5.63
2023-03-08T08:43:45.852Z,6.90
2023-03-08T08:46:13.377Z,5.57
2023-03-08T08:48:40.176Z,6.07
2023-03-08T08:51:08.278Z,5.30
2023-03-08T08:53:35.410Z,5.10
2023-03-08T08:56:29.295Z,5.57
2023-03-08T08:59:02.854Z,5.93
2023-03-08T09:01:31.972Z,4.80
2023-03-08T09:03:59.448Z,5.43
2023-03-08T09:06:26.853Z,6.53
2023-03-08T09:08:54.994Z,9.83
2023-03-08T09:11:22.731Z,9.70
2023-03-08T09:13:49.286Z,6.93
2023-03-08T09:16:22.494Z,5.10
2023-03-08T09:18:49.085Z,11.87
2023-03-08T09:21:16.199Z,9.20
2023-03-08T09:23:42.758Z,8.70
2023-03-08T09:26:09.364Z,5.70
2023-03-08T09:28:36.114Z,4.53
2023-03-08T09:31:11.935Z,5.57
2023-03-08T09:33:51.823Z,4.57
2023-03-08T09:36:19.106Z,3.90
2023-03-08T09:38:48.186Z,4.30
2023-03-08T09:41:25.844Z,4.37
2023-03-08T09:44:18.702Z,5.57
2023-03-08T09:46:53.163Z,4.43
2023-03-08T09:49:24.568Z,4.60
2023-03-08T09:51:55.151Z,5.43
2023-03-08T09:54:23.727Z,5.23
2023-03-08T09:56:52.454Z,4.13
2023-03-08T09:59:33.559Z,4.57
2023-03-08T10:02:03.318Z,3.87
2023-03-08T10:05:09.952Z,3.50
2023-03-08T10:08:02.498Z,3.60
2023-03-08T10:10:49.038Z,5.43
2023-03-08T10:13:36.643Z,3.20
2023-03-08T10:16:22.722Z,3.50
2023-03-08T10:19:30.446Z,3.37
2023-03-08T10:21:58.026Z,3.43
2023-03-08T10:24:29.427Z,3.63
2023-03-08T10:27:04.800Z,4.57
2023-03-08T10:29:31.347Z,4.07
2023-03-08T10:31:57.809Z,3.23
2023-03-08T10:34:29.904Z,3.97
2023-03-08T10:37:06.424Z,4.43
2023-03-08T10:39:32.901Z,5.33
2023-03-08T10:42:00.966Z,3.47
2023-03-08T10:44:33.680Z,3.10
2023-03-08T10:47:02.105Z,7.03
2023-03-08T10:49:28.558Z,8.33
2023-03-08T10:52:00.518Z,5.70
2023-03-08T10:54:28.583Z,3.77
2023-03-08T10:57:00.160Z,4.60
2023-03-08T10:59:32.411Z,5.27
2023-03-08T11:02:13.493Z,5.17
2023-03-08T11:04:51.544Z,3.63
2023-03-08T11:07:26.179Z,3.67
2023-03-08T11:09:53.563Z,3.53
2023-03-08T11:12:25.066Z,3.73
2023-03-08T11:14:52.530Z,4.10
2023-03-08T11:17:35.652Z,4.60
2023-03-08T11:20:26.575Z,3.50
2023-03-08T11:22:59.391Z,4.97
2023-03-08T11:25:44.501Z,3.50
2023-03-08T11:28:48.363Z,3.70
2023-03-08T11:31:30.847Z,2.97
2023-03-08T11:34:19.715Z,3.63
2023-03-08T11:37:03.183Z,4.03
2023-03-08T11:39:54.439Z,3.50
2023-03-08T11:42:26.943Z,4.10
2023-03-08T11:45:00.478Z,2.90
2023-03-08T11:47:45.694Z,4.13
2023-03-08T11:50:31.989Z,4.77
2023-03-08T11:53:04.421Z,2.90
2023-03-08T11:55:50.795Z,4.53
2023-03-08T11:58:49.184Z,3.50
2023-03-08T12:01:29.965Z,4.03
2023-03-08T12:04:03.275Z,4.60
2023-03-08T12:06:41.807Z,3.40
2023-03-08T12:09:37.638Z,4.50
2023-03-08T12:12:15.800Z,5.57
2023-03-08T12:15:00.548Z,4.80
2023-03-08T12:17:44.084Z,3.70
2023-03-08T12:20:15.629Z,3.80
2023-03-08T12:22:58.252Z,3.57
2023-03-08T12:25:38.061Z,3.17
2023-03-08T12:28:25.282Z,3.07
2023-03-08T12:30:57.402Z,3.10
2023-03-08T12:33:24.293Z,4.00
2023-03-08T12:36:00.171Z,5.00
2023-03-08T12:38:34.377Z,6.13
2023-03-08T12:41:01.050Z,5.50
2023-03-08T12:43:32.970Z,4.90
2023-03-08T12:46:01.846Z,6.33
2023-03-08T12:48:40.079Z,4.23
2023-03-08T12:51:12.595Z,4.83
2023-03-08T12:53:51.152Z,4.30
2023-03-08T12:56:24.935Z,5.60
2023-03-08T12:59:03.173Z,6.10
2023-03-08T13:01:41.647Z,3.67
2023-03-08T13:04:39.263Z,6.23
2023-03-08T13:07:12.350Z,3.67
2023-03-08T13:09:41.923Z,4.57
2023-03-08T13:12:08.370Z,7.33
2023-03-08T13:14:46.527Z,5.23
2023-03-08T13:17:31.404Z,23.50
2023-03-08T13:20:10.180Z,3.77
2023-03-08T13:22:54.407Z,6.00
2023-03-08T13:25:36.066Z,4.20
2023-03-08T13:28:19.474Z,4.10
2023-03-08T13:30:52.956Z,5.87
2023-03-08T13:33:23.885Z,4.30
2023-03-08T13:36:02.423Z,6.40
2023-03-08T13:38:32.716Z,3.80
2023-03-08T13:40:59.684Z,6.10
2023-03-08T13:43:28.935Z,5.40
2023-03-08T13:45:58.940Z,4.97
2023-03-08T13:48:29.563Z,3.17
2023-03-08T13:50:56.078Z,2.13
2023-03-08T13:53:27.976Z,3.00
2023-03-08T13:55:57.297Z,3.70
2023-03-08T13:58:46.128Z,2.63
2023-03-08T14:01:22.527Z,2.53
2023-03-08T14:03:49.904Z,3.63
2023-03-08T14:06:24.379Z,2.40
2023-03-08T14:08:51.654Z,2.87
2023-03-08T14:11:24.001Z,4.13
2023-03-08T14:13:52.786Z,3.60
2023-03-08T14:16:36.881Z,4.00
2023-03-08T14:19:20.663Z,3.67
2023-03-08T14:22:08.822Z,11.30
2023-03-08T14:24:36.288Z,4.90
2023-03-08T14:27:04.938Z,3.10
2023-03-08T14:29:34.539Z,3.20
2023-03-08T14:32:06.265Z,4.90
2023-03-08T14:34:40.990Z,5.40
2023-03-08T14:37:16.910Z,4.13
2023-03-08T14:39:48.062Z,4.50
2023-03-08T14:42:23.971Z,4.50
2023-03-08T14:44:57.742Z,5.53
2023-03-08T14:47:29.530Z,3.97
2023-03-08T14:50:03.759Z,4.80
2023-03-08T14:52:31.864Z,4.17
2023-03-08T14:54:58.343Z,4.23
2023-03-08T14:57:27.419Z,2.60
2023-03-08T15:00:05.026Z,4.93
2023-03-08T15:02:31.479Z,2.77
2023-03-08T15:04:58.645Z,3.80
2023-03-08T15:07:34.480Z,5.27
2023-03-08T15:10:01.475Z,4.10
2023-03-08T15:12:27.922Z,2.93
2023-03-08T15:14:56.216Z,3.47
2023-03-08T15:17:22.747Z,3.73
2023-03-08T15:19:50.057Z,3.00
2023-03-08T15:22:17.132Z,2.70
2023-03-08T15:24:43.614Z,21.93
2023-03-08T15:27:13.916Z,3.70
2023-03-08T15:29:40.401Z,8.43
2023-03-08T15:32:07.599Z,11.07
2023-03-08T15:34:35.129Z,5.27
2023-03-08T15:37:01.673Z,4.77
2023-03-08T15:39:28.145Z,5.10
2023-03-08T15:41:54.698Z,6.43
2023-03-08T15:44:21.233Z,13.30
2023-03-08T15:46:47.747Z,13.30
2023-03-08T15:49:14.327Z,9.50
2023-03-08T15:51:40.895Z,5.37
2023-03-08T15:54:07.557Z,3.80
2023-03-08T15:56:34.493Z,2.60
2023-03-08T15:59:01.200Z,3.30
2023-03-08T16:01:27.843Z,3.37
2023-03-08T16:03:57.551Z,4.23
2023-03-08T16:06:24.619Z,4.13
2023-03-08T16:08:51.128Z,5.50
2023-03-08T16:11:22.237Z,3.03
2023-03-08T16:13:51.154Z,3.03
2023-03-08T16:16:18.371Z,3.37
2023-03-08T16:18:45.245Z,2.73
2023-03-08T16:21:12.085Z,5.17
2023-03-08T16:23:39.538Z,3.20
2023-03-08T16:26:15.806Z,5.97
2023-03-08T16:28:47.279Z,15.27
2023-03-08T16:31:15.330Z,22.60
2023-03-08T16:33:42.048Z,15.97
2023-03-08T16:36:09.173Z,13.17
2023-03-08T16:38:37.479Z,27.43
2023-03-08T16:41:13.973Z,21.27
2023-03-08T16:43:49.792Z,19.27
2023-03-08T16:46:22.381Z,13.17
2023-03-08T16:48:50.635Z,10.60
2023-03-08T16:51:23.532Z,8.37
2023-03-08T16:53:50.823Z,15.43
2023-03-08T16:56:24.083Z,23.17
2023-03-08T16:58:52.144Z,22.43
2023-03-08T17:01:20.104Z,15.13
2023-03-08T17:03:48.533Z,8.80
2023-03-08T17:06:20.014Z,7.13
2023-03-08T17:08:48.676Z,7.97
2023-03-08T17:11:21.047Z,7.83
2023-03-08T17:13:54.010Z,7.07
2023-03-08T17:16:22.815Z,7.03
2023-03-08T17:18:50.780Z,7.20
2023-03-08T17:21:20.351Z,6.43
2023-03-08T17:23:47.756Z,6.70
2023-03-08T17:26:17.932Z,13.73
2023-03-08T17:28:46.994Z,15.10
2023-03-08T17:31:16.515Z,13.13
2023-03-08T17:33:45.496Z,17.30
2023-03-08T17:36:14.815Z,14.87
2023-03-08T17:38:41.951Z,13.73
2023-03-08T17:41:11.104Z,17.83
2023-03-08T17:43:41.519Z,15.17
2023-03-08T17:46:12.662Z,16.93
2023-03-08T17:48:42.974Z,18.13
2023-03-08T17:51:17.753Z,17.47
2023-03-08T17:53:45.695Z,23.33
2023-03-08T17:56:21.581Z,24.93
2023-03-08T17:58:49.341Z,17.30
2023-03-08T18:01:19.127Z,11.57
2023-03-08T18:03:47.502Z,15.57
2023-03-08T18:06:35.271Z,17.30
2023-03-08T18:09:11.635Z,11.33
2023-03-08T18:11:41.269Z,26.50
2023-03-08T18:14:15.065Z,16.47
2023-03-08T18:16:43.208Z,16.20
2023-03-08T18:19:11.096Z,21.80
2023-03-08T18:21:41.140Z,23.00
2023-03-08T18:24:11.817Z,27.43
2023-03-08T18:26:40.684Z,22.17
2023-03-08T18:29:09.519Z,15.40
2023-03-08T18:31:37.544Z,11.70
2023-03-08T18:34:05.396Z,11.57
2023-03-08T18:36:36.546Z,10.70
2023-03-08T18:39:05.709Z,13.03
2023-03-08T18:41:34.374Z,12.67
2023-03-08T18:44:01.697Z,28.10
2023-03-08T18:46:30.094Z,16.63
2023-03-08T18:49:00.050Z,15.83
2023-03-08T18:51:31.863Z,12.67
2023-03-08T18:53:59.385Z,13.17
2023-03-08T18:56:27.526Z,15.27
2023-03-08T18:58:55.787Z,21.40
2023-03-08T19:01:23.544Z,26.33
2023-03-08T19:03:51.910Z,32.77
2023-03-08T19:06:24.149Z,26.93
2023-03-08T19:08:51.900Z,24.23
2023-03-08T19:11:26.154Z,22.93
2023-03-08T19:13:54.724Z,18.40
2023-03-08T19:16:29.590Z,20.03
2023-03-08T19:19:03.370Z,16.13
2023-03-08T19:21:33.457Z,16.50
2023-03-08T19:24:01.031Z,13.97
2023-03-08T19:26:36.487Z,16.07
2023-03-08T19:29:15.623Z,28.87
2023-03-08T19:32:04.658Z,20.83
2023-03-08T19:34:33.773Z,15.87
2023-03-08T19:37:03.604Z,28.37
2023-03-08T19:39:33.817Z,36.53
2023-03-08T19:42:04.165Z,13.63
2023-03-08T19:44:31.577Z,17.63
2023-03-08T19:47:00.533Z,20.90
2023-03-08T19:49:31.241Z,20.27
2023-03-08T19:52:03.553Z,20.60
2023-03-08T19:54:30.870Z,18.37
2023-03-08T19:56:58.549Z,12.63
2023-03-08T19:59:26.128Z,13.83
2023-03-08T20:01:54.509Z,13.40
2023-03-08T20:04:22.244Z,15.00
2023-03-08T20:06:50.357Z,15.87
2023-03-08T20:09:27.662Z,24.93
2023-03-08T20:11:58.665Z,16.80
2023-03-08T20:14:31.220Z,16.83
2023-03-08T20:17:00.100Z,11.87
2023-03-08T20:19:28.352Z,13.10
2023-03-08T20:21:55.290Z,11.67
2023-03-08T20:24:24.341Z,13.37
2023-03-08T20:26:53.113Z,10.20
2023-03-08T20:29:21.784Z,12.87
2023-03-08T20:31:54.033Z,18.97
2023-03-08T20:34:21.640Z,18.83
2023-03-08T20:36:50.332Z,12.37
2023-03-08T20:39:19.112Z,14.53
2023-03-08T20:41:46.300Z,20.30
2023-03-08T20:44:14.554Z,26.97
2023-03-08T20:46:41.500Z,24.23
2023-03-08T20:49:08.455Z,22.93
2023-03-08T20:51:36.583Z,14.57
2023-03-08T20:54:05.123Z,12.90
2023-03-08T20:56:33.440Z,17.90
2023-03-08T20:59:00.627Z,23.40
2023-03-08T21:01:30.284Z,21.43
2023-03-08T21:03:56.805Z,19.97
2023-03-08T21:06:26.896Z,16.57
2023-03-08T21:08:53.755Z,15.70
2023-03-08T21:11:20.841Z,16.70
2023-03-08T21:13:48.653Z,14.70
2023-03-08T21:16:17.329Z,19.73
2023-03-08T21:18:46.040Z,21.53
2023-03-08T21:21:34.434Z,23.50
2023-03-08T21:24:10.862Z,18.67
2023-03-08T21:26:37.935Z,17.67
2023-03-08T21:29:06.911Z,17.10
2023-03-08T21:31:35.691Z,15.30
2023-03-08T21:34:03.413Z,14.07
2023-03-08T21:36:30.334Z,13.83
2023-03-08T21:38:57.789Z,17.97
2023-03-08T21:41:30.577Z,18.23
2023-03-08T21:43:57.620Z,17.00
2023-03-08T21:46:24.284Z,17.83
2023-03-08T21:48:50.948Z,18.10
2023-03-08T21:51:17.436Z,19.00
2023-03-08T21:53:44.461Z,15.97
2023-03-08T21:56:14.395Z,14.87
2023-03-08T21:58:40.918Z,14.23
2023-03-08T22:01:07.932Z,18.57
2023-03-08T22:03:34.754Z,37.27
2023-03-08T22:06:01.191Z,44.53
2023-03-08T22:08:27.796Z,36.37
2023-03-08T22:10:54.868Z,15.10
2023-03-08T22:13:21.688Z,14.50
2023-03-08T22:15:48.281Z,16.50
2023-03-08T22:18:15.103Z,22.47
2023-03-08T22:20:41.814Z,20.17
2023-03-08T22:23:08.290Z,16.57
2023-03-08T22:25:34.934Z,15.67
2023-03-08T22:28:01.386Z,12.97
2023-03-08T22:30:27.849Z,15.40
2023-03-08T22:32:54.823Z,15.37
2023-03-08T22:35:22.369Z,13.47
2023-03-08T22:37:49.671Z,13.00
2023-03-08T22:40:18.390Z,14.00
2023-03-08T22:42:46.025Z,15.63
2023-03-08T22:45:12.794Z,15.40
2023-03-08T22:47:39.240Z,18.23
2023-03-08T22:50:06.320Z,18.37
2023-03-08T22:52:33.563Z,17.30
2023-03-08T22:55:00.007Z,16.47
2023-03-08T22:57:26.447Z,16.57
2023-03-08T22:59:57.194Z,17.93
2023-03-08T23:02:23.812Z,18.33
2023-03-08T23:04:50.661Z,13.33
2023-03-08T23:07:17.372Z,13.13
2023-03-08T23:09:43.831Z,12.53
2023-03-08T23:12:10.301Z,11.40
2023-03-08T23:14:36.858Z,13.70
2023-03-08T23:17:03.355Z,12.73
2023-03-08T23:19:29.836Z,11.90
2023-03-08T23:21:56.562Z,11.40
2023-03-08T23:24:23.099Z,12.73
2023-03-08T23:26:49.649Z,12.57
2023-03-08T23:29:16.249Z,12.13
2023-03-08T23:31:45.274Z,12.60
2023-03-08T23:34:12.035Z,13.53
2023-03-08T23:36:38.472Z,14.80
2023-03-08T23:39:04.979Z,12.10
2023-03-08T23:41:32.008Z,16.53
2023-03-08T23:44:00.533Z,14.73
2023-03-08T23:46:28.224Z,14.87
2023-03-08T23:48:56.053Z,11.83
2023-03-08T23:51:24.365Z,12.60
2023-03-08T23:53:52.636Z,12.00
2023-03-08T23:56:30.505Z,12.83
2023-03-08T23:58:59.022Z,14.37
